createdAt,value
2023-03-08T00:00:24.943Z,711.9
2023-03-08T00:01:27.534Z,712.1
2023-03-08T00:02:30.101Z,711.2
2023-03-08T00:03:32.679Z,711.3
2023-03-08T00:04:35.224Z,711.4
2023-03-08T00:05:37.733Z,711.1
2023-03-08T00:06:39.956Z,711.4
2023-03-08T00:07:41.889Z,710.5
2023-03-08T00:08:44.606Z,710.4
2023-03-08T00:09:46.893Z,710.4
2023-03-08T00:10:49.097Z,710.9
2023-03-08T00:11:51.801Z,710.5
2023-03-08T00:12:54.323Z,710.5
2023-03-08T00:13:56.885Z,710.2
2023-03-08T00:14:58.881Z,709.9
2023-03-08T00:16:01.428Z,710
2023-03-08T00:17:04.078Z,710
2023-03-08T00:18:06.832Z,710.3
2023-03-08T00:19:09.356Z,710.3
2023-03-08T00:20:11.917Z,710.4
2023-03-08T00:21:14.176Z,710
2023-03-08T00:22:16.146Z,710.3
2023-03-08T00:23:18.698Z,709.8
2023-03-08T00:24:20.949Z,709.9
2023-03-08T00:25:23.506Z,710.5
2023-03-08T00:26:25.791Z,710.2
2023-03-08T00:27:28.620Z,710.2
2023-03-08T00:28:31.112Z,710.3
2023-03-08T00:29:33.631Z,710.9
2023-03-08T00:30:36.149Z,709.9
2023-03-08T00:31:38.582Z,709.8
2023-03-08T00:32:41.632Z,709.7
2023-03-08T00:33:43.386Z,709.6
2023-03-08T00:34:45.636Z,710.8
2023-03-08T00:35:48.531Z,710.5
2023-03-08T00:36:51.046Z,710.5
2023-03-08T00:37:53.585Z,710.3
2023-03-08T00:38:55.807Z,710.6
2023-03-08T00:39:58.346Z,710.8
2023-03-08T00:41:00.866Z,711
2023-03-08T00:42:03.106Z,711
2023-03-08T00:43:05.893Z,711
2023-03-08T00:44:08.132Z,711.1
2023-03-08T00:45:10.779Z,711
2023-03-08T00:46:13.288Z,711.2
2023-03-08T00:47:15.502Z,710.8
2023-03-08T00:48:17.725Z,711.2
2023-03-08T00:49:20.299Z,710.8
2023-03-08T00:50:22.813Z,711.4
2023-03-08T00:51:25.108Z,711.4
2023-03-08T00:52:27.348Z,711
2023-03-08T00:53:29.632Z,710.3
2023-03-08T00:54:31.829Z,710.6
2023-03-08T00:55:34.340Z,710.3
2023-03-08T00:56:36.293Z,710.4
2023-03-08T00:57:38.510Z,710.8
2023-03-08T00:58:41.158Z,711.3
2023-03-08T00:59:43.664Z,710.8
2023-03-08T01:00:46.162Z,709.9
2023-03-08T01:01:48.687Z,710.3
2023-03-08T01:02:51.198Z,710.3
2023-03-08T01:03:54.286Z,710.2
2023-03-08T01:04:56.809Z,710.6
2023-03-08T01:05:58.764Z,710.3
2023-03-08T01:07:01.312Z,710.8
2023-03-08T01:08:03.850Z,710.4
2023-03-08T01:09:06.373Z,709.8
2023-03-08T01:10:08.932Z,709.7
2023-03-08T01:11:10.897Z,709.7
2023-03-08T01:12:13.730Z,709.7
2023-03-08T01:13:15.678Z,709.6
2023-03-08T01:14:18.456Z,709.8
2023-03-08T01:15:20.979Z,709.7
2023-03-08T01:16:22.970Z,710.2
2023-03-08T01:17:25.278Z,710.6
2023-03-08T01:18:27.242Z,710.9
2023-03-08T01:19:29.478Z,711.6
2023-03-08T01:20:31.978Z,711.5
2023-03-08T01:21:34.420Z,711.3
2023-03-08T01:22:36.686Z,711
2023-03-08T01:23:39.916Z,710.9
2023-03-08T01:24:43.145Z,710.5
2023-03-08T01:25:45.445Z,710.9
2023-03-08T01:26:47.944Z,710.8
2023-03-08T01:27:50.467Z,710.6
2023-03-08T01:28:52.724Z,711.1
2023-03-08T01:29:55.333Z,710.6
2023-03-08T01:30:57.295Z,710.8
2023-03-08T01:31:59.802Z,710.6
2023-03-08T01:33:02.313Z,711.1
2023-03-08T01:34:04.822Z,710.8
2023-03-08T01:35:07.063Z,711
2023-03-08T01:36:09.957Z,711
2023-03-08T01:37:12.234Z,711.1
2023-03-08T01:38:14.760Z,710.7
2023-03-08T01:39:17.254Z,711
2023-03-08T01:40:19.509Z,710.5
2023-03-08T01:41:22.054Z,710.6
2023-03-08T01:42:24.337Z,710.4
2023-03-08T01:43:26.832Z,710.5
2023-03-08T01:44:29.390Z,710.4
2023-03-08T01:45:32.036Z,710.3
2023-03-08T01:46:34.640Z,710.7
2023-03-08T01:47:36.585Z,710.9
2023-03-08T01:48:38.808Z,710.7
2023-03-08T01:49:41.316Z,711.1
2023-03-08T01:50:43.658Z,711.8
2023-03-08T01:51:45.944Z,711.7
2023-03-08T01:52:47.998Z,711.9
2023-03-08T01:53:50.526Z,711.8
2023-03-08T01:54:53.163Z,712.7
2023-03-08T01:55:55.380Z,712.7
2023-03-08T01:56:57.626Z,713.2
2023-03-08T01:57:59.594Z,713.9
2023-03-08T01:59:01.928Z,713.9
2023-03-08T02:00:04.484Z,714.2
2023-03-08T02:01:07.530Z,714.1
2023-03-08T02:02:10.056Z,714.4
2023-03-08T02:03:12.633Z,714.3
2023-03-08T02:04:14.889Z,714.1
2023-03-08T02:05:17.122Z,714.4
2023-03-08T02:06:19.633Z,714
2023-03-08T02:07:22.162Z,715
2023-03-08T02:08:24.376Z,715.1
2023-03-08T02:09:26.898Z,714.7
2023-03-08T02:10:29.158Z,714.9
2023-03-08T02:11:31.405Z,714.9
2023-03-08T02:12:33.901Z,714.6
2023-03-08T02:13:36.424Z,715.1
2023-03-08T02:14:38.645Z,715
2023-03-08T02:15:40.891Z,715.3
2023-03-08T02:16:43.560Z,715.2
2023-03-08T02:17:46.084Z,714.8
2023-03-08T02:18:48.047Z,715.1
2023-03-08T02:19:50.595Z,714.8
2023-03-08T02:20:52.827Z,715.3
2023-03-08T02:21:55.347Z,715.3
2023-03-08T02:22:57.592Z,715.6
2023-03-08T02:23:59.849Z,715.1
2023-03-08T02:25:02.571Z,715.5
2023-03-08T02:26:04.838Z,715.6
2023-03-08T02:27:07.349Z,715.7
2023-03-08T02:28:09.597Z,715.9
2023-03-08T02:29:11.820Z,716.2
2023-03-08T02:30:14.040Z,716.2
2023-03-08T02:31:16.532Z,715.5
2023-03-08T02:32:19.447Z,716
2023-03-08T02:33:21.946Z,716.3
2023-03-08T02:34:24.169Z,716.4
2023-03-08T02:35:26.113Z,716.6
2023-03-08T02:36:28.361Z,716.6
2023-03-08T02:37:30.844Z,716.7
2023-03-08T02:38:33.393Z,716.7
2023-03-08T02:39:35.627Z,716.8
2023-03-08T02:40:37.854Z,717
2023-03-08T02:41:40.377Z,717.6
2023-03-08T02:42:42.865Z,717.2
2023-03-08T02:43:45.074Z,717.5
2023-03-08T02:44:47.611Z,716.9
2023-03-08T02:45:49.845Z,716.9
2023-03-08T02:46:52.067Z,717.1
2023-03-08T02:47:54.506Z,717.3
2023-03-08T02:48:57.045Z,717.1
2023-03-08T02:49:59.260Z,717.1
2023-03-08T02:51:01.760Z,717.5
2023-03-08T02:52:03.993Z,717.6
2023-03-08T02:53:05.942Z,717.4
2023-03-08T02:54:08.542Z,717.3
2023-03-08T02:55:10.761Z,717.6
2023-03-08T02:56:12.998Z,717.7
2023-03-08T02:57:15.206Z,717.3
2023-03-08T02:58:17.695Z,717.1
2023-03-08T02:59:19.647Z,717.5
2023-03-08T03:00:21.890Z,717.2
2023-03-08T03:01:24.681Z,717.5
2023-03-08T03:02:27.246Z,717.5
2023-03-08T03:03:29.845Z,717.3
2023-03-08T03:04:32.354Z,717.6
2023-03-08T03:05:34.584Z,718.2
2023-03-08T03:06:37.122Z,718.1
2023-03-08T03:07:39.358Z,717.6
2023-03-08T03:08:41.300Z,717.7
2023-03-08T03:09:43.516Z,718
2023-03-08T03:10:46.033Z,717.6
2023-03-08T03:11:48.356Z,717.9
2023-03-08T03:12:50.865Z,717.9
2023-03-08T03:13:53.371Z,717.9
2023-03-08T03:14:55.578Z,717.8
2023-03-08T03:15:58.364Z,717.8
2023-03-08T03:17:00.889Z,718
2023-03-08T03:18:03.124Z,718.1
2023-03-08T03:19:05.727Z,718.3
2023-03-08T03:20:07.976Z,718.4
2023-03-08T03:21:10.210Z,718.6
2023-03-08T03:22:12.449Z,718.9
2023-03-08T03:23:14.487Z,719.2
2023-03-08T03:24:16.733Z,719.1
2023-03-08T03:25:19.213Z,719.2
2023-03-08T03:26:21.158Z,719.1
2023-03-08T03:27:23.706Z,719.8
2023-03-08T03:28:25.953Z,719.3
2023-03-08T03:29:28.245Z,719.7
2023-03-08T03:30:30.751Z,719.5
2023-03-08T03:31:33.272Z,719.5
2023-03-08T03:32:35.998Z,719.7
2023-03-08T03:33:38.556Z,719.9
2023-03-08T03:34:41.339Z,719.8
2023-03-08T03:35:43.695Z,720
2023-03-08T03:36:46.183Z,719.9
2023-03-08T03:37:48.705Z,720.2
2023-03-08T03:38:51.229Z,720.2
2023-03-08T03:39:53.162Z,719.7
2023-03-08T03:40:55.672Z,719.9
2023-03-08T03:41:57.892Z,719.9
2023-03-08T03:43:00.185Z,720.4
2023-03-08T03:44:02.393Z,720.4
2023-03-08T03:45:04.909Z,720.4
2023-03-08T03:46:07.632Z,720.5
2023-03-08T03:47:10.194Z,720.7
2023-03-08T03:48:12.404Z,720.6
2023-03-08T03:49:14.928Z,720.9
2023-03-08T03:50:17.542Z,720.9
2023-03-08T03:51:19.800Z,721.1
2023-03-08T03:52:22.028Z,721.1
2023-03-08T03:53:24.290Z,720.7
2023-03-08T03:54:26.935Z,721
2023-03-08T03:55:29.483Z,720.9
2023-03-08T03:56:32.035Z,720.7
2023-03-08T03:57:34.523Z,720.5
2023-03-08T03:58:37.095Z,721
2023-03-08T03:59:39.333Z,720.8
2023-03-08T04:00:41.847Z,721
2023-03-08T04:01:43.813Z,721.3
2023-03-08T04:02:46.598Z,721.1
2023-03-08T04:03:49.436Z,721.3
2023-03-08T04:04:51.958Z,721.5
2023-03-08T04:05:54.637Z,721.4
2023-03-08T04:06:57.139Z,721.6
2023-03-08T04:07:59.654Z,721.7
2023-03-08T04:09:02.138Z,721.5
2023-03-08T04:10:04.418Z,721.6
2023-03-08T04:11:06.923Z,721.5
2023-03-08T04:12:09.411Z,721.8
2023-03-08T04:13:11.915Z,722.2
2023-03-08T04:14:13.928Z,722.7
2023-03-08T04:15:16.440Z,722.4
2023-03-08T04:16:19.192Z,722.1
2023-03-08T04:17:21.979Z,722
2023-03-08T04:18:24.501Z,722.3
2023-03-08T04:19:27.023Z,722.1
2023-03-08T04:20:29.591Z,722.2
2023-03-08T04:21:32.408Z,722.4
2023-03-08T04:22:34.936Z,722.8
2023-03-08T04:23:36.889Z,722.2
2023-03-08T04:24:39.410Z,722.5
2023-03-08T04:25:41.398Z,722.7
2023-03-08T04:26:43.863Z,723.6
2023-03-08T04:27:46.354Z,723.4
2023-03-08T04:28:48.863Z,723.5
2023-03-08T04:29:51.528Z,723.7
2023-03-08T04:30:54.111Z,723.4
2023-03-08T04:31:56.343Z,723.2
2023-03-08T04:32:58.842Z,723.2
2023-03-08T04:34:01.368Z,723.8
2023-03-08T04:35:03.978Z,723.9
2023-03-08T04:36:05.913Z,724.2
2023-03-08T04:37:08.572Z,724.1
2023-03-08T04:38:10.788Z,724.7
2023-03-08T04:39:13.025Z,724.4
2023-03-08T04:40:15.020Z,725
2023-03-08T04:41:17.528Z,725.3
2023-03-08T04:42:20.063Z,725.2
2023-03-08T04:43:22.308Z,725.2
2023-03-08T04:44:24.613Z,725.8
2023-03-08T04:45:26.593Z,725.5
2023-03-08T04:46:29.214Z,725.5
2023-03-08T04:47:31.737Z,725.7
2023-03-08T04:48:33.938Z,724.9
2023-03-08T04:49:35.884Z,725.2
2023-03-08T04:50:37.822Z,726.4
2023-03-08T04:51:40.008Z,726.7
2023-03-08T04:52:42.633Z,726.7
2023-03-08T04:53:45.168Z,726.6
2023-03-08T04:54:47.662Z,727
2023-03-08T04:55:49.600Z,727.5
2023-03-08T04:56:52.102Z,727.3
2023-03-08T04:57:54.345Z,727
2023-03-08T04:58:56.594Z,727.3
2023-03-08T04:59:58.795Z,727.8
2023-03-08T05:01:01.362Z,727.9
2023-03-08T05:02:03.802Z,727.9
2023-03-08T05:03:06.332Z,727.7
2023-03-08T05:04:08.856Z,727.2
2023-03-08T05:05:11.317Z,727.8
2023-03-08T05:06:13.825Z,728.1
2023-03-08T05:07:16.308Z,728.8
2023-03-08T05:08:18.908Z,728.6
2023-03-08T05:09:21.399Z,728.9
2023-03-08T05:10:23.933Z,729.2
2023-03-08T05:11:26.169Z,729.6
2023-03-08T05:12:28.111Z,729.7
2023-03-08T05:13:30.617Z,729.5
2023-03-08T05:14:33.110Z,730.2
2023-03-08T05:15:35.301Z,729.8
2023-03-08T05:16:38.254Z,730.3
2023-03-08T05:17:40.487Z,730.1
2023-03-08T05:18:43.005Z,730.2
2023-03-08T05:19:45.278Z,730.9
2023-03-08T05:20:47.519Z,730.8
2023-03-08T05:21:50.021Z,731.1
2023-03-08T05:23:57.327Z,731.4
2023-03-08T05:24:59.852Z,731.6
2023-03-08T05:26:02.080Z,731.2
2023-03-08T05:27:04.579Z,731.2
2023-03-08T05:28:07.064Z,731.7
2023-03-08T05:29:09.324Z,731.4
2023-03-08T05:30:11.596Z,731.2
2023-03-08T05:31:14.148Z,731.3
2023-03-08T05:32:17.056Z,731.1
2023-03-08T05:33:18.763Z,731
2023-03-08T05:34:21.239Z,731.5
2023-03-08T05:35:23.470Z,731.2
2023-03-08T05:36:25.962Z,731.4
2023-03-08T05:37:29.353Z,731.5
2023-03-08T05:38:31.917Z,731.4
2023-03-08T05:39:34.730Z,731.9
2023-03-08T05:40:37.216Z,731.9
2023-03-08T05:41:39.455Z,732.2
2023-03-08T05:42:41.657Z,732.4
2023-03-08T05:43:44.143Z,732.8
2023-03-08T05:44:46.633Z,733.1
2023-03-08T05:45:50.013Z,733.2
2023-03-08T05:46:52.320Z,733.3
2023-03-08T05:47:54.863Z,733.3
2023-03-08T05:48:57.075Z,733.3
2023-03-08T05:49:59.323Z,733.1
2023-03-08T05:51:01.571Z,733.2
2023-03-08T05:52:03.788Z,733.5
2023-03-08T05:53:05.754Z,733.5
2023-03-08T05:54:07.985Z,733.2
2023-03-08T05:55:10.636Z,733.4
2023-03-08T05:56:13.163Z,733.3
2023-03-08T05:57:15.673Z,733.2
2023-03-08T05:58:18.182Z,733.3
2023-03-08T05:59:20.671Z,733.3
2023-03-08T06:00:23.192Z,733
2023-03-08T06:01:25.741Z,732.9
2023-03-08T06:02:28.559Z,733.1
2023-03-08T06:03:31.541Z,733.2
2023-03-08T06:04:33.821Z,733.1
2023-03-08T06:05:36.338Z,733.2
2023-03-08T06:06:38.277Z,733
2023-03-08T06:07:40.785Z,733.8
2023-03-08T06:08:42.469Z,733.6
2023-03-08T06:09:45.037Z,733.6
2023-03-08T06:10:47.701Z,733.6
2023-03-08T06:11:50.211Z,733.4
2023-03-08T06:12:52.722Z,733.7
2023-03-08T06:13:54.942Z,733.7
2023-03-08T06:14:57.476Z,733.8
2023-03-08T06:15:59.743Z,733.9
2023-03-08T06:17:02.859Z,733.8
2023-03-08T06:18:04.543Z,733.4
2023-03-08T06:19:07.066Z,733.2
2023-03-08T06:20:09.566Z,732.9
2023-03-08T06:21:11.754Z,732.8
2023-03-08T06:22:14.245Z,732.6
2023-03-08T06:23:16.487Z,732.2
2023-03-08T06:24:19.059Z,732.5
2023-03-08T06:25:22.476Z,733
2023-03-08T06:26:25.388Z,733.1
2023-03-08T06:27:27.952Z,732.8
2023-03-08T06:28:30.491Z,733
2023-03-08T06:29:33.007Z,733.3
2023-03-08T06:30:35.676Z,733.1
2023-03-08T06:31:37.945Z,733.6
2023-03-08T06:32:40.508Z,733.1
2023-03-08T06:33:43.049Z,733
2023-03-08T06:34:45.628Z,733
2023-03-08T06:35:48.450Z,732.5
2023-03-08T06:36:50.948Z,732.4
2023-03-08T06:37:53.464Z,732.2
2023-03-08T06:38:55.714Z,732.5
2023-03-08T06:39:58.243Z,732.2
2023-03-08T06:41:00.748Z,732.4
2023-03-08T06:42:03.352Z,732.3
2023-03-08T06:43:05.848Z,732.2
2023-03-08T06:44:08.076Z,732.3
2023-03-08T06:45:10.159Z,732.3
2023-03-08T06:46:13.045Z,732.1
2023-03-08T06:47:15.334Z,732.2
2023-03-08T06:48:17.546Z,731.7
2023-03-08T06:49:19.489Z,731.8
2023-03-08T06:50:21.734Z,731.8
2023-03-08T06:51:24.255Z,731.9
2023-03-08T06:52:26.486Z,731.8
2023-03-08T06:53:29.034Z,731.3
2023-03-08T06:54:30.989Z,732
2023-03-08T06:55:32.957Z,732.1
2023-03-08T06:56:35.481Z,732
2023-03-08T06:57:38.184Z,732.3
2023-03-08T06:58:40.437Z,731.8
2023-03-08T06:59:42.948Z,732.1
2023-03-08T07:00:45.266Z,732.2
2023-03-08T07:01:47.772Z,732.1
2023-03-08T07:02:49.999Z,732.7
2023-03-08T07:03:52.520Z,732.4
2023-03-08T07:04:55.023Z,732.5
2023-03-08T07:05:57.267Z,732.5
2023-03-08T07:07:00.141Z,732.2
2023-03-08T07:08:02.498Z,731.9
2023-03-08T07:09:04.155Z,732
2023-03-08T07:10:06.679Z,731.9
2023-03-08T07:11:09.197Z,732.4
2023-03-08T07:12:11.718Z,731.3
2023-03-08T07:13:14.404Z,731.2
2023-03-08T07:14:16.673Z,731.7
2023-03-08T07:15:18.963Z,731.6
2023-03-08T07:16:21.880Z,731.4
2023-03-08T07:17:24.397Z,731.2
2023-03-08T07:18:26.924Z,730.9
2023-03-08T07:19:29.426Z,730.7
2023-03-08T07:20:31.667Z,730.2
2023-03-08T07:21:34.687Z,729.8
2023-03-08T07:22:36.638Z,730.1
2023-03-08T07:23:39.170Z,729.7
2023-03-08T07:24:41.659Z,730.2
2023-03-08T07:25:43.904Z,730.3
2023-03-08T07:26:46.414Z,730.1
2023-03-08T07:27:48.635Z,730.4
2023-03-08T07:28:51.268Z,730.4
2023-03-08T07:30:59.728Z,731.3
2023-03-08T07:32:02.135Z,731.7
2023-03-08T07:33:05.082Z,731.8
2023-03-08T07:34:07.388Z,731.7
2023-03-08T07:35:09.928Z,731.8
2023-03-08T07:36:13.019Z,732.2
2023-03-08T07:37:15.095Z,732.1
2023-03-08T07:38:17.644Z,731.9
2023-03-08T07:39:19.917Z,731.4
2023-03-08T07:40:22.152Z,731.4
2023-03-08T07:41:24.415Z,731.2
2023-03-08T07:42:26.941Z,731.6
2023-03-08T07:43:29.207Z,731
2023-03-08T07:44:32.074Z,731.3
2023-03-08T07:45:34.321Z,731.7
2023-03-08T07:46:37.184Z,731.6
2023-03-08T07:47:39.716Z,731.7
2023-03-08T07:48:42.240Z,732.1
2023-03-08T07:49:44.550Z,732.8
2023-03-08T07:50:46.875Z,732.4
2023-03-08T07:51:49.406Z,732.9
2023-03-08T07:52:52.084Z,732.6
2023-03-08T07:53:53.799Z,732.7
2023-03-08T07:54:56.383Z,733
2023-03-08T07:55:58.932Z,733.7
2023-03-08T07:57:01.474Z,734.4
2023-03-08T07:58:04.000Z,734.5
2023-03-08T07:59:06.504Z,735.2
2023-03-08T08:00:08.861Z,735.6
2023-03-08T08:01:11.394Z,735.8
2023-03-08T08:02:13.077Z,735.7
2023-03-08T08:03:15.685Z,735.8
2023-03-08T08:04:17.917Z,736
2023-03-08T08:05:20.962Z,735.9
2023-03-08T08:06:23.473Z,736.4
2023-03-08T08:07:25.696Z,736.4
2023-03-08T08:08:27.977Z,736.3
2023-03-08T08:09:30.500Z,736.3
2023-03-08T08:10:33.046Z,736.6
2023-03-08T08:11:35.289Z,736.9
2023-03-08T08:12:37.891Z,737.7
2023-03-08T08:13:40.401Z,738.2
2023-03-08T08:14:42.378Z,738.4
2023-03-08T08:15:44.805Z,738.5
2023-03-08T08:16:47.604Z,738.7
2023-03-08T08:17:49.817Z,738.7
2023-03-08T08:18:52.379Z,739.2
2023-03-08T08:19:54.951Z,739.2
2023-03-08T08:20:57.155Z,738.9
2023-03-08T08:21:58.902Z,738.8
2023-03-08T08:23:01.452Z,738.6
2023-03-08T08:24:04.011Z,738.6
2023-03-08T08:25:06.607Z,738.9
2023-03-08T08:26:09.153Z,739.4
2023-03-08T08:27:12.752Z,739.4
2023-03-08T08:28:15.492Z,739.7
2023-03-08T08:29:17.767Z,740.3
2023-03-08T08:30:20.357Z,740.7
2023-03-08T08:31:23.135Z,741.4
2023-03-08T08:32:26.221Z,741.6
2023-03-08T08:33:28.509Z,742.6
2023-03-08T08:34:30.756Z,742.3
2023-03-08T08:36:38.003Z,742.9
2023-03-08T08:37:40.268Z,743.3
2023-03-08T08:38:42.801Z,743.5
2023-03-08T08:39:45.069Z,743.4
2023-03-08T08:40:47.285Z,743.9
2023-03-08T08:41:49.813Z,744.8
2023-03-08T08:42:52.349Z,744.4
2023-03-08T08:43:54.897Z,744.9
2023-03-08T08:44:57.422Z,745
2023-03-08T08:45:59.971Z,745.4
2023-03-08T08:47:02.689Z,745.6
2023-03-08T08:48:05.225Z,745.8
2023-03-08T08:49:07.740Z,746.5
2023-03-08T08:50:10.996Z,747
2023-03-08T08:51:17.002Z,747.3
2023-03-08T08:52:19.233Z,747.4
2023-03-08T08:53:21.964Z,747.9
2023-03-08T08:54:24.603Z,747.8
2023-03-08T08:55:27.228Z,748.1
2023-03-08T08:56:30.153Z,748
2023-03-08T08:57:32.395Z,747.9
2023-03-08T08:58:34.923Z,747.9
2023-03-08T08:59:37.463Z,747.9
2023-03-08T09:00:39.712Z,747.8
2023-03-08T09:01:41.962Z,748
2023-03-08T09:02:45.012Z,747.6
2023-03-08T09:03:47.832Z,747.9
2023-03-08T09:04:50.995Z,748.4
2023-03-08T09:05:53.259Z,748.4
2023-03-08T09:06:55.505Z,748.9
2023-03-08T09:07:58.059Z,749.2
2023-03-08T09:09:00.667Z,749
2023-03-08T09:10:03.302Z,749.6
2023-03-08T09:11:05.560Z,749.2
2023-03-08T09:12:07.825Z,749.4
2023-03-08T09:13:10.678Z,749.1
2023-03-08T09:14:12.942Z,749.4
2023-03-08T09:15:15.477Z,749.5
2023-03-08T09:16:18.352Z,749.8
2023-03-08T09:17:20.587Z,749.9
2023-03-08T09:18:23.220Z,749.7
2023-03-08T09:19:26.004Z,750.2
2023-03-08T09:20:28.553Z,750
2023-03-08T09:21:30.531Z,750.6
2023-03-08T09:22:32.789Z,750.8
2023-03-08T09:23:35.310Z,750.4
2023-03-08T09:24:37.845Z,750.5
2023-03-08T09:25:40.101Z,750.7
2023-03-08T09:26:42.443Z,751.6
2023-03-08T09:27:44.723Z,751.7
2023-03-08T09:28:47.336Z,752.2
2023-03-08T09:29:49.874Z,752.5
2023-03-08T09:30:51.831Z,752.3
2023-03-08T09:31:54.495Z,752.6
2023-03-08T09:32:57.481Z,752.7
2023-03-08T09:34:00.252Z,752.7
2023-03-08T09:35:02.828Z,752.5
2023-03-08T09:36:05.368Z,752.4
2023-03-08T09:37:07.644Z,752.5
2023-03-08T09:38:10.172Z,752.5
2023-03-08T09:39:12.541Z,753
2023-03-08T09:40:15.053Z,752.5
2023-03-08T09:41:17.332Z,752.8
2023-03-08T09:42:20.349Z,752.5
2023-03-08T09:43:22.891Z,753.2
2023-03-08T09:44:25.488Z,752.8
2023-03-08T09:45:28.029Z,752.8
2023-03-08T09:46:30.557Z,753.2
2023-03-08T09:47:33.099Z,753.9
2023-03-08T09:48:35.628Z,754.6
2023-03-08T09:49:37.986Z,754.7
2023-03-08T09:50:40.311Z,753.6
2023-03-08T09:51:42.555Z,752.9
2023-03-08T09:52:44.552Z,753.3
2023-03-08T09:53:46.825Z,752.9
2023-03-08T09:54:49.561Z,752.1
2023-03-08T09:55:51.828Z,752.3
2023-03-08T09:56:54.096Z,752.7
2023-03-08T09:57:56.894Z,752.7
2023-03-08T09:58:58.895Z,753
2023-03-08T10:00:01.451Z,753.7
2023-03-08T10:01:04.030Z,755.2
2023-03-08T10:02:06.567Z,756.1
2023-03-08T10:03:09.150Z,756.7
2023-03-08T10:04:11.349Z,756.1
2023-03-08T10:05:16.209Z,756.4
2023-03-08T10:06:18.748Z,756.2
2023-03-08T10:07:20.422Z,755.7
2023-03-08T10:08:22.955Z,755.6
2023-03-08T10:09:25.194Z,755
2023-03-08T10:10:27.445Z,755
2023-03-08T10:11:29.715Z,754.8
2023-03-08T10:12:32.266Z,755.1
2023-03-08T10:13:34.974Z,754.7
2023-03-08T10:14:37.531Z,754.7
2023-03-08T10:16:45.074Z,755.3
2023-03-08T10:17:47.598Z,755.1
2023-03-08T10:18:50.135Z,755.2
2023-03-08T10:19:52.362Z,755.9
2023-03-08T10:20:55.004Z,756.2
2023-03-08T10:21:57.552Z,756.1
2023-03-08T10:23:00.168Z,756.4
2023-03-08T10:24:02.806Z,755.8
2023-03-08T10:25:05.346Z,755.7
2023-03-08T10:26:07.892Z,754.6
2023-03-08T10:27:10.253Z,754.5
2023-03-08T10:28:13.026Z,753.8
2023-03-08T10:29:15.579Z,753.1
2023-03-08T10:30:17.832Z,752.7
2023-03-08T10:31:20.089Z,752.9
2023-03-08T10:32:23.089Z,752.4
2023-03-08T10:33:25.704Z,752.1
2023-03-08T10:34:28.262Z,752.1
2023-03-08T10:35:30.472Z,752.2
2023-03-08T10:36:33.151Z,752
2023-03-08T10:37:35.731Z,751.7
2023-03-08T10:38:38.056Z,751.8
2023-03-08T10:39:40.314Z,752.1
2023-03-08T10:40:42.856Z,751.8
2023-03-08T10:41:45.132Z,752.1
2023-03-08T10:42:47.666Z,753.4
2023-03-08T10:43:49.994Z,753.7
2023-03-08T10:44:52.537Z,754
2023-03-08T10:45:55.250Z,753.9
2023-03-08T10:46:57.502Z,753.1
2023-03-08T10:47:59.539Z,752.6
2023-03-08T10:49:02.111Z,751.9
2023-03-08T10:50:04.689Z,752.4
2023-03-08T10:51:07.060Z,751.9
2023-03-08T10:52:09.780Z,752.3
2023-03-08T10:53:11.771Z,751.9
2023-03-08T10:54:14.324Z,751.8
2023-03-08T10:55:16.634Z,751.9
2023-03-08T10:56:19.399Z,751.7
2023-03-08T10:57:21.755Z,751.8
2023-03-08T10:58:24.288Z,752.3
2023-03-08T10:59:26.807Z,751.6
2023-03-08T11:00:29.107Z,750.9
2023-03-08T11:01:31.427Z,751.6
2023-03-08T11:02:33.962Z,752.8
2023-03-08T11:03:36.226Z,753.2
2023-03-08T11:04:38.955Z,752
2023-03-08T11:05:41.252Z,751.8
2023-03-08T11:06:43.838Z,752.1
2023-03-08T11:07:46.565Z,752.5
2023-03-08T11:08:48.860Z,752.7
2023-03-08T11:09:51.394Z,752.2
2023-03-08T11:10:54.297Z,753.6
2023-03-08T11:11:56.577Z,752.6
2023-03-08T11:12:58.805Z,752.9
2023-03-08T11:14:01.352Z,752.8
2023-03-08T11:15:04.105Z,752.9
2023-03-08T11:16:06.924Z,753.1
2023-03-08T11:17:09.520Z,754.1
2023-03-08T11:19:17.365Z,754.9
2023-03-08T11:20:19.382Z,755.2
2023-03-08T11:21:21.308Z,755.5
2023-03-08T11:22:23.293Z,755.8
2023-03-08T11:23:25.935Z,755.8
2023-03-08T11:24:28.752Z,755.2
2023-03-08T11:25:31.085Z,755.4
2023-03-08T11:26:33.609Z,755.9
2023-03-08T11:27:35.990Z,755.9
2023-03-08T11:28:38.475Z,756.5
2023-03-08T11:29:40.441Z,757
2023-03-08T11:30:42.963Z,757.4
2023-03-08T11:31:45.222Z,757.4
2023-03-08T11:32:49.072Z,757.9
2023-03-08T11:33:52.407Z,758.2
2023-03-08T11:34:54.443Z,758.7
2023-03-08T11:35:57.039Z,758.7
2023-03-08T11:36:59.334Z,758.8
2023-03-08T11:38:01.908Z,759.3
2023-03-08T11:39:04.338Z,759.8
2023-03-08T11:40:06.864Z,760
2023-03-08T11:41:09.452Z,760.4
2023-03-08T11:43:16.684Z,760.5
2023-03-08T11:44:19.233Z,760.8
2023-03-08T11:45:20.900Z,760.8
2023-03-08T11:46:23.668Z,760.7
2023-03-08T11:47:26.222Z,761.4
2023-03-08T11:48:28.741Z,762.4
2023-03-08T11:49:31.333Z,762
2023-03-08T11:50:33.320Z,761.3
2023-03-08T11:51:35.828Z,761.4
2023-03-08T11:52:38.086Z,761.9
2023-03-08T11:53:40.632Z,761.4
2023-03-08T11:54:44.051Z,761.7
2023-03-08T11:55:46.600Z,762.2
2023-03-08T11:56:48.850Z,762.1
2023-03-08T11:57:51.366Z,762
2023-03-08T11:58:53.960Z,761.9
2023-03-08T11:59:56.473Z,761.7
2023-03-08T12:00:59.002Z,762
2023-03-08T12:02:01.245Z,762.7
2023-03-08T12:03:03.809Z,762.1
2023-03-08T12:04:07.203Z,762.1
2023-03-08T12:05:09.868Z,762.4
2023-03-08T12:07:18.021Z,762.3
2023-03-08T12:08:20.345Z,762.1
2023-03-08T12:09:22.952Z,762.7
2023-03-08T12:10:25.997Z,762.7
2023-03-08T12:11:28.525Z,762.9
2023-03-08T12:12:31.067Z,762.6
2023-03-08T12:13:33.604Z,762.5
2023-03-08T12:14:36.122Z,762.8
2023-03-08T12:15:38.981Z,763
2023-03-08T12:16:42.124Z,763.1
2023-03-08T12:17:44.732Z,762.3
2023-03-08T12:18:47.314Z,762.9
2023-03-08T12:19:49.833Z,763
2023-03-08T12:20:51.556Z,762.8
2023-03-08T12:21:54.067Z,762.9
2023-03-08T12:22:57.148Z,763
2023-03-08T12:23:59.352Z,763.1
2023-03-08T12:25:01.612Z,762.9
2023-03-08T12:26:04.424Z,763.5
2023-03-08T12:27:06.664Z,762.9
2023-03-08T12:28:09.491Z,763.5
2023-03-08T12:29:12.313Z,763.5
2023-03-08T12:30:14.735Z,763.8
2023-03-08T12:32:23.218Z,763.6
2023-03-08T12:33:26.428Z,764.1
2023-03-08T12:34:28.763Z,764
2023-03-08T12:35:31.088Z,764.1
2023-03-08T12:36:34.282Z,763.8
2023-03-08T12:37:37.258Z,764.5
2023-03-08T12:38:40.131Z,763.8
2023-03-08T12:39:42.593Z,763.8
2023-03-08T12:40:45.153Z,763.9
2023-03-08T12:41:48.282Z,763.7
2023-03-08T12:42:50.550Z,764.3
2023-03-08T12:43:52.797Z,764.2
2023-03-08T12:44:55.323Z,764.2
2023-03-08T12:45:57.918Z,764.3
2023-03-08T12:48:05.616Z,764.1
2023-03-08T12:49:07.609Z,764.7
2023-03-08T12:50:09.863Z,764.1
2023-03-08T12:51:11.548Z,764.2
2023-03-08T12:52:14.416Z,764.7
2023-03-08T12:53:16.661Z,764.8
2023-03-08T12:54:18.900Z,763.7
2023-03-08T12:55:21.129Z,764.6
2023-03-08T12:56:23.670Z,765.1
2023-03-08T12:57:26.369Z,764.2
2023-03-08T12:58:28.914Z,763.6
2023-03-08T12:59:31.465Z,763.7
2023-03-08T13:00:33.466Z,763.3
2023-03-08T13:01:35.734Z,763.6
2023-03-08T13:02:37.749Z,763.4
2023-03-08T13:03:40.335Z,763.1
2023-03-08T13:04:45.022Z,763.9
2023-03-08T13:05:47.325Z,764.1
2023-03-08T13:06:49.581Z,763.2
2023-03-08T13:07:52.076Z,763
2023-03-08T13:08:54.308Z,763
2023-03-08T13:09:56.915Z,762.6
2023-03-08T13:10:59.209Z,763.3
2023-03-08T13:12:01.496Z,764.2
2023-03-08T13:13:04.425Z,761.6
2023-03-08T13:14:06.421Z,763.2
2023-03-08T13:15:09.022Z,764
2023-03-08T13:16:11.743Z,763.6
2023-03-08T13:17:13.973Z,762
2023-03-08T13:18:16.505Z,763.1
2023-03-08T13:19:19.753Z,764.5
2023-03-08T13:20:22.809Z,762.8
2023-03-08T13:21:25.514Z,764.3
2023-03-08T13:22:27.732Z,763.3
2023-03-08T13:23:30.202Z,763.2
2023-03-08T13:24:32.442Z,763.5
2023-03-08T13:25:34.920Z,765.4
2023-03-08T13:27:42.754Z,763.7
2023-03-08T13:29:50.907Z,764.5
2023-03-08T13:30:54.074Z,763.8
2023-03-08T13:31:56.366Z,764.3
2023-03-08T13:32:58.921Z,764.5
2023-03-08T13:34:01.499Z,764.5
2023-03-08T13:35:04.031Z,764.9
2023-03-08T13:36:07.006Z,764.1
2023-03-08T13:37:09.627Z,764.1
2023-03-08T13:38:11.878Z,764.7
2023-03-08T13:39:14.109Z,764.1
2023-03-08T13:40:16.675Z,763
2023-03-08T13:41:18.660Z,764